Time;durP1;ratioP1;P1;durP2;ratioP2;P2;SDS_P1;SDS_P2;PMS_P1;PMS_P2;Temp;Humidity;BMP_temperature;BMP_pressure;BME280_temperature;BME280_humidity;BME280_pressure;Samples;Min_cycle;Max_cycle;Signal;HPM_P1;HPM_P2
2022/10/14 00:02:30;;;;;;;41.53;22.50;;;;;;;16.04;73.36;100426.47;10338424;28;20062;-63
2022/10/14 00:07:31;;;;;;;46.13;22.88;;;;;;;16.05;73.35;100422.72;10358539;28;20528;-61
2022/10/14 00:12:33;;;;;;;43.17;22.80;;;;;;;16.04;73.20;100415.63;10358728;28;20046;-62
2022/10/14 00:17:35;;;;;;;45.85;23.13;;;;;;;16.03;73.57;100411.25;10354472;28;20441;-63
2022/10/14 00:22:36;;;;;;;44.20;22.05;;;;;;;16.03;73.44;100413.97;10363294;28;20074;-64
2022/10/14 00:27:38;;;;;;;49.15;23.52;;;;;;;16.03;73.59;100413.13;10352225;28;20073;-63
2022/10/14 00:32:39;;;;;;;54.97;23.38;;;;;;;15.99;73.88;100411.88;10355476;28;20093;-63
2022/10/14 00:37:40;;;;;;;44.28;23.02;;;;;;;15.86;74.25;100416.25;10352836;28;20050;-60
2022/10/14 00:42:42;;;;;;;48.53;24.92;;;;;;;15.90;74.16;100419.41;10349610;28;20496;-61
2022/10/14 00:47:44;;;;;;;49.97;23.63;;;;;;;15.89;74.30;100425.84;10353515;28;20436;-60
2022/10/14 00:52:45;;;;;;;44.40;21.33;;;;;;;15.85;74.19;100422.72;10346605;28;20113;-61
2022/10/14 00:57:47;;;;;;;44.00;21.17;;;;;;;15.80;74.41;100425.22;10347583;28;20061;-62
2022/10/14 01:02:48;;;;;;;43.28;20.05;;;;;;;15.76;74.47;100418.56;10339973;28;20396;-64
2022/10/14 01:07:52;;;;;;;36.55;18.42;;;;;;;15.70;74.76;100415.81;10352572;28;20137;-61
2022/10/14 01:13:06;;;;;;;36.05;16.98;;;;;;;15.64;75.05;100426.44;10354589;28;20049;-61
2022/10/14 01:18:14;;;;;;;36.25;16.90;;;;;;;15.66;74.96;100416.22;10353502;28;20070;-60
2022/10/14 01:23:37;;;;;;;33.67;16.60;;;;;;;15.67;74.79;100409.75;10351633;28;20428;-63
2022/10/14 01:28:50;;;;;;;27.90;14.88;;;;;;;15.72;74.71;100397.44;10353287;28;20125;-62
2022/10/14 01:33:57;;;;;;;30.65;15.63;;;;;;;15.67;74.63;100398.09;10355717;28;20047;-63
2022/10/14 01:39:04;;;;;;;29.87;16.13;;;;;;;15.62;74.51;100381.59;10332031;28;20074;-64
2022/10/14 01:44:10;;;;;;;32.55;15.80;;;;;;;15.54;74.86;100382.69;10345603;28;20128;-60
2022/10/14 01:49:22;;;;;;;27.43;13.40;;;;;;;15.52;74.85;100381.19;10350597;28;20137;-61
2022/10/14 01:54:30;;;;;;;29.35;13.95;;;;;;;15.45;74.99;100379.31;10339313;28;20462;-61
2022/10/14 01:59:34;;;;;;;27.80;14.40;;;;;;;15.52;74.68;100373.06;10314796;28;20097;-62
2022/10/14 02:04:35;;;;;;;24.55;13.43;;;;;;;15.51;74.78;100372.25;10308377;28;20267;-62
2022/10/14 02:10:01;;;;;;;23.88;14.65;;;;;;;15.54;74.50;100365.56;10308061;28;20070;-60
2022/10/14 02:15:13;;;;;;;26.98;15.18;;;;;;;15.58;74.60;100356.84;10311826;28;20085;-63
2022/10/14 02:20:25;;;;;;;25.42;14.73;;;;;;;15.59;74.85;100353.06;10292073;28;20088;-62
2022/10/14 02:25:31;;;;;;;31.77;15.00;;;;;;;15.62;74.29;100346.38;10308212;28;20142;-64
2022/10/14 02:30:38;;;;;;;30.05;16.95;;;;;;;15.67;74.29;100344.72;10316424;28;20046;-63
2022/10/14 02:35:41;;;;;;;32.15;16.45;;;;;;;15.69;74.17;100335.56;10310400;28;20074;-62
2022/10/14 02:40:45;;;;;;;33.42;16.63;;;;;;;15.65;74.08;100335.97;10315937;28;20043;-60
2022/10/14 02:45:47;;;;;;;29.45;16.08;;;;;;;15.66;74.15;100337.66;10283910;28;20791;-62
2022/10/14 02:50:48;;;;;;;30.77;16.55;;;;;;;15.71;73.92;100328.88;10293939;28;20431;-63
2022/10/14 02:55:50;;;;;;;30.92;16.33;;;;;;;15.72;74.07;100322.44;10338010;28;20074;-63
2022/10/14 03:00:51;;;;;;;31.60;16.40;;;;;;;15.76;73.90;100315.56;10357204;28;20073;-62
2022/10/14 03:05:54;;;;;;;31.50;16.33;;;;;;;15.76;73.99;100303.91;10365177;28;21229;-60
2022/10/14 03:10:55;;;;;;;32.38;18.55;;;;;;;15.74;73.94;100301.41;10353448;28;20081;-63
2022/10/14 03:15:58;;;;;;;32.35;16.88;;;;;;;15.66;74.55;100309.72;10356856;28;20393;-65
2022/10/14 03:20:59;;;;;;;41.00;18.00;;;;;;;15.61;74.71;100304.91;10367212;28;20065;-66
2022/10/14 03:26:00;;;;;;;33.75;18.00;;;;;;;15.65;74.52;100302.63;10350058;28;20073;-62
2022/10/14 03:31:02;;;;;;;35.80;18.17;;;;;;;15.58;74.89;100299.06;10353524;28;20058;-63
2022/10/14 03:36:03;;;;;;;36.78;18.33;;;;;;;15.65;74.69;100310.75;10362060;28;20076;-61
2022/10/14 03:41:05;;;;;;;37.22;18.75;;;;;;;15.64;74.55;100303.69;10355101;28;20046;-61
2022/10/14 03:46:06;;;;;;;36.42;18.48;;;;;;;15.65;74.68;100303.44;10355762;28;20046;-65
2022/10/14 03:51:08;;;;;;;34.22;18.48;;;;;;;15.73;74.59;100288.06;10331864;28;20132;-60
2022/10/14 03:56:09;;;;;;;36.65;19.17;;;;;;;15.64;74.80;100293.66;10349621;28;20054;-63
2022/10/14 04:01:11;;;;;;;41.58;19.33;;;;;;;15.70;74.71;100296.56;10327430;28;20520;-63
2022/10/14 04:06:13;;;;;;;40.53;20.95;;;;;;;15.69;74.72;100284.91;10335206;28;20136;-62
2022/10/14 04:11:16;;;;;;;37.72;18.77;;;;;;;15.57;75.11;100283.88;10347085;28;20088;-62
2022/10/14 04:16:17;;;;;;;43.78;19.40;;;;;;;15.53;75.37;100286.16;10352934;28;20703;-63
2022/10/14 04:21:19;;;;;;;42.63;20.23;;;;;;;15.53;75.28;100283.47;10350709;28;20089;-63
2022/10/14 04:26:20;;;;;;;41.58;19.77;;;;;;;15.61;75.27;100288.66;10359456;28;20070;-61
2022/10/14 04:31:21;;;;;;;36.88;20.00;;;;;;;15.60;75.46;100287.00;10345959;28;20109;-60
2022/10/14 04:36:23;;;;;;;48.55;21.45;;;;;;;15.65;75.12;100279.06;10347492;28;20064;-63
2022/10/14 04:41:24;;;;;;;43.13;20.85;;;;;;;15.70;75.30;100274.88;10360534;28;20085;-61
2022/10/14 04:46:26;;;;;;;38.92;19.88;;;;;;;15.73;75.23;100272.63;10365023;28;20049;-63
2022/10/14 04:51:27;;;;;;;38.28;20.00;;;;;;;15.72;75.47;100262.81;10349374;28;20571;-61
2022/10/14 04:56:28;;;;;;;36.08;18.88;;;;;;;15.74;75.43;100263.44;10326244;28;20560;-60
2022/10/14 05:01:30;;;;;;;34.35;17.95;;;;;;;15.70;75.15;100258.63;10315792;28;20066;-64
2022/10/14 05:06:36;;;;;;;37.53;18.67;;;;;;;15.73;75.68;100260.94;10309758;28;20043;-62
2022/10/14 05:11:37;;;;;;;35.55;17.65;;;;;;;15.73;75.43;100255.53;10311779;28;20086;-61
2022/10/14 05:16:38;;;;;;;38.25;17.75;;;;;;;15.61;75.84;100252.59;10314803;28;20081;-62
2022/10/14 05:21:40;;;;;;;35.28;18.90;;;;;;;15.56;76.13;100249.69;10318039;28;20074;-64
2022/10/14 05:26:42;;;;;;;47.47;20.52;;;;;;;15.54;76.14;100251.78;10315329;28;20042;-63
2022/10/14 05:31:43;;;;;;;33.22;17.02;;;;;;;15.50;76.47;100248.69;10308790;28;20142;-62
2022/10/14 05:36:44;;;;;;;35.63;18.85;;;;;;;15.49;76.44;100238.88;10318292;28;20047;-61
2022/10/14 05:41:46;;;;;;;41.75;17.70;;;;;;;15.53;76.48;100242.81;10319640;28;20046;-63
2022/10/14 05:46:47;;;;;;;36.08;17.33;;;;;;;15.60;76.06;100248.22;10309921;28;20050;-69
2022/10/14 05:51:49;;;;;;;40.08;18.05;;;;;;;15.61;76.31;100236.34;10300967;28;20074;-69
2022/10/14 05:56:50;;;;;;;35.00;16.55;;;;;;;15.56;76.20;100233.44;10334279;28;20101;-68
2022/10/14 06:01:52;;;;;;;35.28;17.52;;;;;;;15.53;76.47;100240.09;10344277;28;20132;-70
2022/10/14 06:06:53;;;;;;;34.65;17.60;;;;;;;15.51;76.49;100228.66;10342687;28;20089;-69
2022/10/14 06:11:54;;;;;;;37.50;18.27;;;;;;;15.54;76.48;100230.09;10347872;28;20053;-69
2022/10/14 06:16:56;;;;;;;36.45;17.33;;;;;;;15.59;76.39;100228.41;10341844;28;20141;-70
2022/10/14 06:21:57;;;;;;;36.47;18.02;;;;;;;15.60;76.31;100230.09;10350389;28;20074;-68
2022/10/14 06:26:59;;;;;;;38.63;17.77;;;;;;;15.65;76.32;100232.16;10344843;28;20066;-68
2022/10/14 06:32:00;;;;;;;35.92;17.40;;;;;;;15.72;76.14;100229.41;10345670;28;20553;-69
2022/10/14 06:37:01;;;;;;;36.65;16.75;;;;;;;15.73;76.17;100225.72;10346595;28;20701;-62
2022/10/14 06:42:03;;;;;;;42.60;18.58;;;;;;;15.80;76.26;100232.78;10345853;28;20527;-62
2022/10/14 06:47:06;;;;;;;37.10;16.83;;;;;;;15.85;76.00;100232.13;10333053;28;20076;-63
2022/10/14 06:52:07;;;;;;;33.95;16.73;;;;;;;15.79;76.25;100233.81;10347369;28;20078;-63
2022/10/14 06:57:08;;;;;;;39.50;18.48;;;;;;;15.85;76.23;100243.81;10329795;28;20062;-66
2022/10/14 07:02:10;;;;;;;36.92;18.23;;;;;;;15.87;76.14;100243.59;10350117;28;20142;-62
2022/10/14 07:07:11;;;;;;;34.47;17.10;;;;;;;15.89;76.10;100237.97;10344510;28;20105;-64
2022/10/14 07:12:13;;;;;;;32.03;17.88;;;;;;;15.88;76.14;100230.88;10349695;28;20101;-64
2022/10/14 07:17:14;;;;;;;26.25;16.83;;;;;;;15.97;76.25;100232.31;10349023;28;20088;-64
2022/10/14 07:22:16;;;;;;;38.25;17.40;;;;;;;16.02;75.88;100248.78;10347165;28;20080;-63
2022/10/14 07:27:19;;;;;;;28.73;16.48;;;;;;;16.06;75.66;100231.03;10351984;28;20070;-63
2022/10/14 07:32:21;;;;;;;29.80;15.82;;;;;;;16.10;75.77;100228.72;10353277;28;20054;-65
2022/10/14 07:37:22;;;;;;;31.73;17.05;;;;;;;16.12;75.62;100242.91;10358904;28;20575;-64
2022/10/14 07:42:24;;;;;;;36.75;20.08;;;;;;;16.21;75.50;100231.59;10353498;28;20113;-65
2022/10/14 07:47:26;;;;;;;35.55;18.20;;;;;;;16.26;75.46;100236.34;10355989;28;20061;-65
2022/10/14 07:52:28;;;;;;;36.17;21.55;;;;;;;16.29;75.69;100227.78;10357175;28;20054;-66
2022/10/14 07:57:29;;;;;;;31.77;18.05;;;;;;;16.30;75.54;100224.03;10354748;28;20050;-65
2022/10/14 08:02:31;;;;;;;30.85;16.42;;;;;;;16.38;75.44;100231.91;10354843;28;20069;-64
2022/10/14 08:07:32;;;;;;;35.78;17.35;;;;;;;16.35;75.72;100235.06;10356944;28;20054;-65
2022/10/14 08:12:33;;;;;;;35.42;18.17;;;;;;;16.33;75.78;100242.59;10353805;28;20667;-63
2022/10/14 08:17:35;;;;;;;31.10;18.02;;;;;;;16.29;75.97;100226.94;10350090;28;20449;-63
2022/10/14 08:22:36;;;;;;;35.63;18.27;;;;;;;16.29;76.10;100240.50;10349856;28;20474;-64
2022/10/14 08:27:38;;;;;;;40.50;17.55;;;;;;;16.34;76.01;100232.56;10355016;28;20046;-65
2022/10/14 08:32:39;;;;;;;39.67;19.02;;;;;;;16.21;76.32;100236.16;10350836;28;20440;-62
2022/10/14 08:37:40;;;;;;;42.28;19.70;;;;;;;16.26;76.36;100230.94;10354741;28;20088;-65
2022/10/14 08:42:54;;;;;;;37.33;19.98;;;;;;;16.41;76.35;100214.34;10347952;28;20038;-65
2022/10/14 08:47:59;;;;;;;34.08;18.73;;;;;;;16.63;76.41;100206.72;10346713;28;20144;-66
2022/10/14 08:53:18;;;;;;;34.70;17.70;;;;;;;16.76;75.85;100209.31;10327629;28;20057;-65
2022/10/14 08:58:27;;;;;;;38.85;19.92;;;;;;;16.78;75.61;100217.25;10343251;28;20734;-66
2022/10/14 09:03:33;;;;;;;36.38;19.80;;;;;;;16.82;75.75;100213.06;10351628;28;20106;-66
2022/10/14 09:08:41;;;;;;;45.58;20.88;;;;;;;16.83;75.43;100210.13;10345842;28;20062;-66
2022/10/14 09:13:45;;;;;;;39.63;20.52;;;;;;;16.78;75.93;100204.50;10350444;28;20054;-65
2022/10/14 09:18:56;;;;;;;40.00;18.77;;;;;;;16.80;75.92;100212.44;10342665;28;20134;-63
2022/10/14 09:24:17;;;;;;;33.50;18.30;;;;;;;16.74;75.94;100208.69;10357197;28;20081;-64
2022/10/14 09:29:24;;;;;;;40.90;19.13;;;;;;;16.84;76.31;100194.66;10350666;28;20129;-66
2022/10/14 09:34:34;;;;;;;36.83;17.48;;;;;;;16.88;76.27;100184.22;10347839;28;20076;-66
2022/10/14 09:39:39;;;;;;;33.67;18.92;;;;;;;17.05;76.18;100183.41;10357408;28;20129;-68
2022/10/14 09:44:40;;;;;;;29.25;17.02;;;;;;;17.18;75.69;100170.75;10363049;28;20074;-67
2022/10/14 09:49:45;;;;;;;27.92;15.15;;;;;;;17.32;75.81;100169.59;10351173;28;20100;-68
2022/10/14 09:54:57;;;;;;;31.48;15.50;;;;;;;17.29;75.56;100151.00;10334447;28;20471;-67
2022/10/14 10:00:02;;;;;;;30.90;15.45;;;;;;;17.41;75.64;100146.47;10356984;28;20087;-67
2022/10/14 10:05:13;;;;;;;35.50;16.02;;;;;;;17.59;75.35;100136.69;10358705;28;20053;-69
2022/10/14 10:10:21;;;;;;;24.13;14.77;;;;;;;17.76;75.40;100131.47;10354018;28;20050;-66
2022/10/14 10:15:23;;;;;;;23.83;13.10;;;;;;;17.73;75.37;100145.50;10358530;28;20042;-68
2022/10/14 10:20:32;;;;;;;22.77;14.75;;;;;;;17.77;75.15;100131.25;10358984;28;20077;-66
2022/10/14 10:25:34;;;;;;;21.15;13.90;;;;;;;17.88;75.11;100126.09;10365344;28;20034;-68
2022/10/14 10:30:47;;;;;;;21.92;12.20;;;;;;;18.07;75.01;100132.31;10373747;28;20058;-69
2022/10/14 10:35:51;;;;;;;27.65;12.82;;;;;;;18.27;74.47;100123.91;10379511;28;20046;-69
2022/10/14 10:41:20;;;;;;;21.05;11.63;;;;;;;18.37;74.11;100111.38;10386992;28;20058;-70
2022/10/14 10:46:31;;;;;;;19.55;10.30;;;;;;;18.46;73.50;100105.59;10376456;28;20050;-70
2022/10/14 10:52:03;;;;;;;17.17;10.48;;;;;;;18.40;73.19;100115.50;10377738;28;20154;-70
2022/10/14 10:57:17;;;;;;;21.17;11.45;;;;;;;18.25;73.14;100105.06;10378052;28;20042;-69
2022/10/14 11:02:37;;;;;;;17.58;12.55;;;;;;;18.10;73.49;100099.22;10365709;28;20050;-69
2022/10/14 11:13:26;;;;;;;20.83;11.50;;;;;;;18.23;73.35;100082.72;10369165;28;20085;-69
2022/10/14 11:19:06;;;;;;;18.52;11.77;;;;;;;18.31;73.48;100071.47;10379244;28;20052;-70
2022/10/14 11:24:32;;;;;;;17.13;10.27;;;;;;;18.35;73.25;100060.97;10366646;28;20089;-70
2022/10/14 11:29:53;;;;;;;18.13;12.32;;;;;;;18.37;73.38;100059.66;10358407;28;20042;-69
2022/10/14 11:35:15;;;;;;;15.80;9.90;;;;;;;18.36;73.14;100051.72;10361651;28;20057;-67
2022/10/14 11:40:38;;;;;;;14.63;8.10;;;;;;;18.10;73.24;100047.53;10363175;28;20040;-69
2022/10/14 11:45:50;;;;;;;15.15;7.93;;;;;;;17.95;73.49;100040.66;10379208;28;20065;-69
2022/10/14 11:51:04;;;;;;;16.73;8.38;;;;;;;17.93;73.62;100031.03;10371199;28;20069;-68
2022/10/14 11:56:29;;;;;;;13.52;8.50;;;;;;;17.97;73.27;100022.22;10363675;28;20050;-69
2022/10/14 12:01:37;;;;;;;15.98;8.00;;;;;;;17.98;73.61;100017.59;10347729;28;20068;-67
2022/10/14 12:06:56;;;;;;;11.50;7.28;;;;;;;17.90;74.03;100010.59;10359180;28;20060;-68
2022/10/14 12:12:10;;;;;;;14.70;6.47;;;;;;;17.72;74.31;100005.19;10360328;28;20050;-68
2022/10/14 12:17:22;;;;;;;11.50;6.63;;;;;;;17.63;74.10;100005.53;10359381;28;20074;-68
2022/10/14 12:22:28;;;;;;;11.73;6.05;;;;;;;17.62;74.22;100008.47;10358322;28;20054;-68
2022/10/14 12:27:30;;;;;;;12.93;5.82;;;;;;;17.60;74.27;100005.16;10338667;28;20466;-68
2022/10/14 12:32:31;;;;;;;12.65;6.68;;;;;;;17.56;74.04;99995.81;10365903;28;20330;-68
2022/10/14 12:37:36;;;;;;;13.02;6.43;;;;;;;17.43;74.36;99984.03;10362253;28;20077;-68
2022/10/14 12:42:41;;;;;;;11.95;6.68;;;;;;;17.29;74.70;99982.56;10332311;28;20058;-66
2022/10/14 12:47:42;;;;;;;13.73;6.47;;;;;;;17.20;74.96;99986.66;10353449;28;20072;-68
2022/10/14 12:52:54;;;;;;;13.05;7.10;;;;;;;17.17;75.00;99974.38;10327196;28;20504;-68
2022/10/14 12:58:05;;;;;;;11.10;6.25;;;;;;;17.10;75.03;99973.63;10363131;28;20074;-67
2022/10/14 13:03:19;;;;;;;10.45;5.72;;;;;;;16.76;76.17;99973.16;10357035;28;20586;-66
2022/10/14 13:08:24;;;;;;;8.73;5.95;;;;;;;16.78;75.93;99968.31;10374660;28;20136;-67
2022/10/14 13:13:38;;;;;;;9.27;6.00;;;;;;;16.68;76.46;99976.16;10382057;28;20052;-65
2022/10/14 13:18:43;;;;;;;10.48;7.05;;;;;;;16.71;76.42;99966.75;10369012;28;20045;-69
2022/10/14 13:23:49;;;;;;;14.23;7.45;;;;;;;16.77;76.55;99968.56;10363935;28;20033;-70
2022/10/14 13:29:03;;;;;;;11.82;6.65;;;;;;;16.64;76.81;99956.78;10338976;28;20076;-69
2022/10/14 13:34:26;;;;;;;11.95;6.95;;;;;;;16.59;76.82;99959.38;10351197;28;20042;-68
2022/10/14 13:39:31;;;;;;;11.68;6.57;;;;;;;16.54;77.28;99945.63;10356072;28;20069;-70
2022/10/14 13:44:34;;;;;;;14.30;7.43;;;;;;;16.53;77.73;99945.84;10366358;28;20073;-68
2022/10/14 13:49:39;;;;;;;13.98;7.53;;;;;;;16.62;77.90;99930.94;10362261;28;20110;-69
2022/10/14 13:54:40;;;;;;;12.02;7.28;;;;;;;16.70;77.79;99913.53;10364517;28;20077;-69
2022/10/14 13:59:44;;;;;;;9.73;6.90;;;;;;;16.76;77.63;99907.19;10357706;28;20100;-69
2022/10/14 14:05:15;;;;;;;11.05;6.68;;;;;;;16.67;77.90;99898.53;10393853;28;20153;-68
2022/10/14 14:10:19;;;;;;;11.30;7.68;;;;;;;16.71;78.33;99899.72;10396738;28;20054;-71
2022/10/14 14:15:26;;;;;;;14.02;7.97;;;;;;;16.73;78.17;99903.03;10358551;28;21685;-70
2022/10/14 14:20:28;;;;;;;15.35;7.18;;;;;;;16.60;78.52;99909.44;10368625;28;20439;-68
2022/10/14 14:25:30;;;;;;;12.15;8.40;;;;;;;16.66;78.10;99875.97;10371316;28;20062;-68
2022/10/14 14:30:38;;;;;;;11.77;7.60;;;;;;;16.62;78.52;99880.19;10377298;28;20858;-67
2022/10/14 14:35:50;;;;;;;16.33;7.97;;;;;;;16.60;78.55;99886.91;10400632;28;20460;-70
2022/10/14 14:41:05;;;;;;;14.10;6.70;;;;;;;16.50;78.85;99870.34;10363015;28;20053;-69
2022/10/14 14:46:16;;;;;;;13.25;7.78;;;;;;;16.59;78.78;99852.72;10378311;28;20037;-69
2022/10/14 14:51:18;;;;;;;14.70;7.82;;;;;;;16.53;79.29;99850.88;10378879;28;20508;-70
2022/10/14 14:56:30;;;;;;;11.35;6.47;;;;;;;16.60;79.37;99857.88;10380669;28;20045;-68
2022/10/14 15:01:32;;;;;;;13.55;7.40;;;;;;;16.61;79.24;99840.56;10383307;28;20042;-68
2022/10/14 15:06:33;;;;;;;11.32;6.97;;;;;;;16.60;79.36;99848.91;10380057;28;20073;-68
2022/10/14 15:11:48;;;;;;;12.35;7.72;;;;;;;16.60;79.25;99840.78;10391912;28;20042;-69
2022/10/14 15:16:53;;;;;;;13.93;8.00;;;;;;;16.62;79.23;99836.78;10378254;28;20046;-68
2022/10/14 15:22:19;;;;;;;14.27;9.45;;;;;;;16.61;79.51;99840.56;10367218;28;20089;-68
2022/10/14 15:27:34;;;;;;;22.65;11.45;;;;;;;16.64;79.17;99845.50;10375301;28;20077;-68
2022/10/14 15:32:36;;;;;;;13.75;9.43;;;;;;;16.69;79.26;99841.31;10358342;28;20050;-67
2022/10/14 15:37:37;;;;;;;20.23;9.95;;;;;;;16.71;79.11;99829.16;10366060;28;20046;-68
2022/10/14 15:42:39;;;;;;;20.50;10.32;;;;;;;16.61;79.45;99837.84;10376464;28;20598;-69
2022/10/14 15:47:41;;;;;;;22.63;11.63;;;;;;;16.63;79.67;99826.78;10348152;28;20134;-67
2022/10/14 15:52:44;;;;;;;17.95;11.27;;;;;;;16.67;79.71;99814.41;10346175;28;20054;-67
2022/10/14 15:57:48;;;;;;;23.40;11.98;;;;;;;16.74;79.17;99811.59;10374094;28;20037;-67
2022/10/14 16:02:57;;;;;;;18.85;11.30;;;;;;;16.65;79.73;99817.34;10372959;28;20433;-66
2022/10/14 16:07:58;;;;;;;22.15;11.80;;;;;;;16.76;79.51;99813.00;10371829;28;20124;-69
2022/10/14 16:13:02;;;;;;;21.60;12.18;;;;;;;16.72;79.61;99821.84;10369749;28;20097;-65
2022/10/14 16:18:03;;;;;;;17.13;10.25;;;;;;;16.80;79.25;99816.91;10370527;28;20106;-65
2022/10/14 16:23:05;;;;;;;18.02;10.48;;;;;;;16.83;79.17;99805.63;10372787;28;20133;-64
2022/10/14 16:28:11;;;;;;;22.35;11.75;;;;;;;16.69;79.66;99793.28;10371202;28;20073;-65
2022/10/14 16:33:18;;;;;;;24.80;12.25;;;;;;;16.73;79.63;99799.91;10371489;28;20070;-66
2022/10/14 16:38:20;;;;;;;25.45;13.13;;;;;;;16.82;79.67;99787.72;10403384;28;20108;-69
2022/10/14 16:43:21;;;;;;;21.58;12.90;;;;;;;16.89;79.46;99793.03;10375884;28;20049;-68
2022/10/14 16:48:23;;;;;;;24.00;15.45;;;;;;;16.95;79.18;99785.84;10383828;28;20049;-67
2022/10/14 16:53:39;;;;;;;24.95;15.88;;;;;;;17.00;79.10;99786.81;10384390;28;20042;-73
2022/10/14 16:58:41;;;;;;;25.30;16.25;;;;;;;17.03;78.90;99774.66;10348647;28;20065;-74
2022/10/14 17:03:42;;;;;;;23.17;14.75;;;;;;;16.88;79.37;99785.94;10352946;28;20129;-75
2022/10/14 17:08:44;;;;;;;24.98;15.68;;;;;;;16.90;79.62;99783.81;10351608;28;20137;-76
2022/10/14 17:13:50;;;;;;;28.50;16.55;;;;;;;16.99;79.25;99798.72;10356838;28;20390;-68
2022/10/14 17:18:51;;;;;;;23.63;15.48;;;;;;;17.03;79.34;99788.22;10364859;28;20073;-74
2022/10/14 17:23:53;;;;;;;24.35;15.60;;;;;;;17.12;79.16;99783.28;10352593;28;20069;-73
2022/10/14 17:28:55;;;;;;;23.27;15.10;;;;;;;17.09;79.28;99792.72;10351588;28;20210;-78
2022/10/14 17:33:58;;;;;;;24.08;13.88;;;;;;;17.05;79.34;99796.97;10347524;28;20041;-72
2022/10/14 17:38:59;;;;;;;27.45;15.15;;;;;;;17.08;79.55;99793.81;10349268;28;20129;-67
2022/10/14 17:44:01;;;;;;;24.52;12.65;;;;;;;17.05;79.46;99783.38;10358131;28;20042;-73
2022/10/14 17:49:05;;;;;;;19.10;12.52;;;;;;;17.04;79.41;99798.00;10354473;28;20054;-77
2022/10/14 17:54:09;;;;;;;23.52;13.65;;;;;;;17.01;79.58;99795.78;10356234;28;20054;-73
2022/10/14 17:59:12;;;;;;;25.08;14.73;;;;;;;16.96;80.22;99779.34;10353611;28;20480;-76
2022/10/14 18:04:14;;;;;;;21.95;12.85;;;;;;;17.09;79.66;99762.03;10351165;28;20058;-70
2022/10/14 18:09:16;;;;;;;29.02;14.75;;;;;;;17.11;79.65;99785.16;10354385;28;20038;-73
2022/10/14 18:14:17;;;;;;;28.48;15.15;;;;;;;17.13;79.66;99779.50;10353427;28;20049;-76
2022/10/14 18:19:18;;;;;;;19.83;13.77;;;;;;;17.13;79.44;99776.78;10359034;28;20141;-74
2022/10/14 18:24:20;;;;;;;23.90;13.75;;;;;;;17.10;79.50;99777.25;10350832;28;20057;-72
2022/10/14 18:29:22;;;;;;;25.85;13.73;;;;;;;17.14;79.57;99773.84;10350777;28;20137;-69
2022/10/14 18:34:26;;;;;;;26.02;13.00;;;;;;;17.18;79.30;99752.47;10353176;28;20073;-75
2022/10/14 18:39:27;;;;;;;20.83;12.38;;;;;;;17.15;79.68;99764.63;10348882;28;20070;-69
2022/10/14 18:44:28;;;;;;;21.05;12.85;;;;;;;17.16;79.32;99746.44;10347451;28;20089;-69
2022/10/14 18:49:30;;;;;;;23.15;14.13;;;;;;;17.15;79.54;99742.91;10349198;28;20521;-72
2022/10/14 18:54:36;;;;;;;23.10;13.15;;;;;;;17.11;79.49;99735.47;10349601;28;20065;-67
2022/10/14 18:59:38;;;;;;;22.50;13.10;;;;;;;17.12;79.35;99734.38;10324605;28;20047;-68
2022/10/14 19:04:39;;;;;;;23.48;13.45;;;;;;;17.11;79.45;99741.72;10347918;28;20141;-72
2022/10/14 19:09:41;;;;;;;30.50;15.38;;;;;;;17.23;79.40;99736.31;10354977;28;20600;-70
2022/10/14 19:14:43;;;;;;;21.13;12.45;;;;;;;17.25;79.08;99726.84;10352744;28;20050;-69
2022/10/14 19:19:44;;;;;;;25.15;13.55;;;;;;;17.24;79.27;99719.78;10354015;28;20081;-68
2022/10/14 19:24:45;;;;;;;20.17;12.48;;;;;;;17.22;79.59;99721.09;10357109;28;20046;-72
2022/10/14 19:29:47;;;;;;;21.95;13.13;;;;;;;17.19;79.63;99711.50;10354389;28;20077;-70
2022/10/14 19:34:48;;;;;;;18.63;12.55;;;;;;;17.21;79.43;99711.25;10348139;28;20050;-67
2022/10/14 19:39:49;;;;;;;18.40;11.88;;;;;;;17.20;79.53;99698.72;10352942;28;20405;-69
2022/10/14 19:44:51;;;;;;;17.33;11.07;;;;;;;17.22;79.32;99707.50;10361342;28;20080;-67
2022/10/14 19:49:53;;;;;;;17.33;10.13;;;;;;;17.24;79.27;99710.81;10346752;28;20519;-66
2022/10/14 19:54:54;;;;;;;16.58;10.40;;;;;;;17.19;79.34;99703.34;10345851;28;20177;-71
2022/10/14 19:59:55;;;;;;;15.15;8.55;;;;;;;17.17;79.28;99704.66;10342011;28;20038;-67
2022/10/14 20:04:57;;;;;;;14.20;8.05;;;;;;;17.17;79.25;99699.22;10349669;28;20133;-70
2022/10/14 20:09:58;;;;;;;9.93;7.43;;;;;;;17.17;78.89;99688.34;10334567;28;20062;-68
2022/10/14 20:15:04;;;;;;;12.70;7.68;;;;;;;17.16;78.77;99695.69;10351650;28;20046;-68
2022/10/14 20:20:07;;;;;;;13.13;7.45;;;;;;;17.18;78.85;99690.00;10329853;28;20137;-69
2022/10/14 20:25:09;;;;;;;8.68;6.05;;;;;;;17.11;79.10;99681.16;10353715;28;20057;-69
2022/10/14 20:30:10;;;;;;;8.57;6.95;;;;;;;17.15;78.94;99685.03;10346211;28;20102;-71
2022/10/14 20:35:12;;;;;;;11.70;6.50;;;;;;;17.07;79.02;99680.78;10349416;28;20054;-70
2022/10/14 20:40:15;;;;;;;10.15;7.03;;;;;;;17.07;78.90;99677.25;10321036;28;20094;-69
2022/10/14 20:45:17;;;;;;;10.05;7.07;;;;;;;17.10;78.96;99664.03;10351985;28;20534;-68
2022/10/14 20:50:19;;;;;;;12.90;7.45;;;;;;;17.07;78.88;99669.94;10349418;28;20042;-72
2022/10/14 20:55:20;;;;;;;14.25;7.75;;;;;;;17.00;78.90;99648.34;10331534;28;20054;-69
2022/10/14 21:00:22;;;;;;;9.95;6.55;;;;;;;17.01;79.19;99657.28;10330132;28;20171;-73
2022/10/14 21:05:24;;;;;;;8.38;5.00;;;;;;;16.98;79.25;99644.19;10332741;28;20072;-68
2022/10/14 21:10:26;;;;;;;6.28;4.22;;;;;;;16.99;79.32;99643.94;10333775;28;20129;-70
2022/10/14 21:15:27;;;;;;;7.60;4.28;;;;;;;16.98;79.23;99638.75;10360518;28;20073;-67
2022/10/14 21:20:29;;;;;;;4.63;3.92;;;;;;;16.93;79.25;99644.06;10355556;28;20137;-68
2022/10/14 21:25:30;;;;;;;6.20;4.22;;;;;;;16.83;79.50;99637.31;10343559;28;20521;-70
2022/10/14 21:30:31;;;;;;;4.95;3.17;;;;;;;16.74;79.84;99633.25;10327744;28;20445;-71
2022/10/14 21:35:33;;;;;;;4.65;2.63;;;;;;;16.62;80.19;99633.25;10346102;28;20597;-71
2022/10/14 21:40:34;;;;;;;4.50;2.22;;;;;;;16.58;80.03;99632.06;10349689;28;20050;-66
2022/10/14 21:45:35;;;;;;;5.43;2.97;;;;;;;16.56;79.85;99620.63;10362582;28;20047;-70
2022/10/14 21:50:37;;;;;;;4.85;2.78;;;;;;;16.61;79.67;99615.31;10361980;28;20109;-66
2022/10/14 21:55:38;;;;;;;5.70;3.47;;;;;;;16.65;79.65;99610.25;10358571;28;20133;-74
2022/10/14 22:00:39;;;;;;;8.27;3.95;;;;;;;16.63;79.78;99605.06;10364589;28;20074;-72
2022/10/14 22:05:41;;;;;;;11.68;4.10;;;;;;;16.66;79.57;99604.56;10372112;28;20052;-72
2022/10/14 22:10:43;;;;;;;8.63;4.32;;;;;;;16.71;79.30;99589.50;10384155;28;20049;-71
2022/10/14 22:15:45;;;;;;;8.05;4.97;;;;;;;16.75;79.35;99579.84;10368290;28;20049;-68
2022/10/14 22:20:47;;;;;;;10.80;5.72;;;;;;;16.69;79.62;99578.88;10360934;28;20046;-69
2022/10/14 22:25:49;;;;;;;13.90;6.38;;;;;;;16.71;79.48;99571.31;10329618;28;20289;-70
2022/10/14 22:30:50;;;;;;;16.20;7.70;;;;;;;16.74;79.45;99568.13;10347880;28;20078;-72
2022/10/14 22:35:51;;;;;;;21.48;8.43;;;;;;;16.73;79.65;99571.91;10336143;28;20043;-72
2022/10/14 22:40:53;;;;;;;20.10;8.85;;;;;;;16.74;79.83;99572.72;10353546;28;20125;-69
2022/10/14 22:46:02;;;;;;;22.08;9.38;;;;;;;16.81;79.59;99552.59;10353118;28;20130;-68
2022/10/14 22:51:12;;;;;;;23.40;10.40;;;;;;;16.89;79.41;99554.13;10341270;28;20041;-71
2022/10/14 22:56:16;;;;;;;25.60;10.80;;;;;;;16.90;79.22;99561.19;10326407;28;20058;-69
2022/10/14 23:01:17;;;;;;;28.52;12.07;;;;;;;17.00;79.12;99553.28;10322755;28;20113;-71
2022/10/14 23:06:19;;;;;;;25.60;11.05;;;;;;;17.01;78.88;99554.13;10325058;28;20046;-68